This is the latest recevied weather packets stored in our database for station/object K9UO. If no packets are shown the sender has not sent any weather packets the latest 1 day(s).
| Time | Temp. | Humidity | Pressure | Rain* | Wind** | Luminosity | Snow |
|---|---|---|---|---|---|---|---|
| 1836274678 | 21.11° C | 2% | 1017.4 hPa | 0 mm | 1.79 m/s, 85° | - | - |
| 1778032859 | 8.33° C | 1% | 1008.8 hPa | 1.02 mm | 0 m/s | - | - |
| 1778031955 | 8.33° C | 1% | 1008.6 hPa | 1.02 mm | 0 m/s | - | - |
| 1778031063 | 8.33° C | 1% | 1008.4 hPa | 1.27 mm | 0 m/s | - | - |
| 1778030146 | 8.33° C | 1% | 1008 hPa | 1.27 mm | 0 m/s | - | - |
| 1778029253 | 8.33° C | 1% | 1007.9 hPa | 1.27 mm | 0 m/s | - | - |
| 1778028336 | 8.33° C | 1% | 1008.1 hPa | 1.02 mm | 0.45 m/s, 37° | - | - |
| 1778027432 | 8.33° C | 1% | 1008.5 hPa | 0.76 mm | 1.34 m/s, 360° | - | - |
| 1778026530 | 8.33° C | 1% | 1008.4 hPa | 0.76 mm | 0 m/s | - | - |
| 1778025623 | 8.33° C | 1% | 1008.2 hPa | 0.51 mm | 0 m/s | - | - |
| 1778024719 | 8.33° C | 1% | 1008.1 hPa | 0.76 mm | 0 m/s | - | - |
| 1778023814 | 8.33° C | 1% | 1008 hPa | 0.51 mm | 0.45 m/s, 15° | - | - |
| 1778022913 | 8.89° C | 1% | 1008.3 hPa | 0.51 mm | 0.89 m/s, 19° | - | - |
| 1778022005 | 8.89° C | 1% | 1008.3 hPa | 0.51 mm | 2.24 m/s, 18° | - | - |
| 1778021101 | 9.44° C | 1% | 1008.3 hPa | 0.51 mm | 2.24 m/s, 5° | - | - |
| 1778020257 | 9.44° C | 1% | 1008.2 hPa | 0.51 mm | 2.24 m/s, 360° | - | - |
| 1778019352 | 9.44° C | 1% | 1008.2 hPa | 0.51 mm | 1.79 m/s, 11° | - | - |
| 1778018448 | 9.44° C | 1% | 1008.1 hPa | 0.51 mm | 2.24 m/s, 351° | - | - |
| 1778017544 | 10° C | 1% | 1007.9 hPa | 0.51 mm | 3.13 m/s, 18° | - | - |
| 1778016638 | 10° C | 1% | 1007.6 hPa | 0.51 mm | 2.68 m/s, 355° | - | - |
| 1778015735 | 10° C | 1% | 1007.4 hPa | 0.51 mm | 1.34 m/s, 16° | - | - |
| 1778014830 | 10.56° C | 1% | 1007.3 hPa | 0.76 mm | 1.34 m/s, 5° | - | - |
| 1778013925 | 11.11° C | 1% | 1007.1 hPa | 0.51 mm | 3.13 m/s, 355° | - | - |
| 1778013029 | 11.11° C | 1% | 1006.8 hPa | 0.76 mm | 0.45 m/s, 14° | - | - |
| 1778012118 | 11.11° C | 1% | 1006.8 hPa | 1.52 mm | 0 m/s | - | - |
* Rain latest hour (hover to see other rain measurements)
** Current wind speed in m/s (hover to see current wind gust speed)